createdAt,value
2022-08-19T00:00:00.211Z,8.3
2022-08-19T00:05:00.308Z,7.2
2022-08-19T00:10:00.168Z,6.7
2022-08-19T00:15:00.192Z,7.5
2022-08-19T00:20:00.194Z,8.3
2022-08-19T00:25:00.156Z,7.9
2022-08-19T00:30:00.199Z,8.4
2022-08-19T00:35:00.171Z,8.5
2022-08-19T00:40:00.327Z,9.0
2022-08-19T00:45:00.175Z,7.7
2022-08-19T00:50:00.255Z,9.0
2022-08-19T00:55:00.173Z,9.1
2022-08-19T01:00:02.389Z,8.7
2022-08-19T01:05:00.189Z,8.3
2022-08-19T01:10:00.232Z,8.7
2022-08-19T01:15:00.172Z,8.6
2022-08-19T01:20:00.164Z,9.4
2022-08-19T01:25:00.178Z,9.5
2022-08-19T01:30:00.188Z,9.2
2022-08-19T01:35:00.166Z,9.5
2022-08-19T01:40:00.271Z,9.4
2022-08-19T01:45:00.159Z,9.2
2022-08-19T01:50:00.204Z,8.9
2022-08-19T01:55:00.154Z,9.4
2022-08-19T02:00:00.192Z,0.0
2022-08-19T02:05:00.161Z,8.7
2022-08-19T02:10:00.172Z,10.8
2022-08-19T02:15:00.163Z,9.6
2022-08-19T02:20:00.189Z,8.3
2022-08-19T02:25:00.188Z,8.8
2022-08-19T02:30:00.186Z,9.0
2022-08-19T02:35:00.179Z,10.2
2022-08-19T02:40:00.293Z,9.9
2022-08-19T02:45:00.171Z,9.4
2022-08-19T02:50:00.178Z,9.2
2022-08-19T02:55:00.165Z,10.0
2022-08-19T03:00:00.260Z,9.3
2022-08-19T03:05:00.209Z,9.3
2022-08-19T03:10:00.266Z,9.8
2022-08-19T03:15:00.201Z,10.0
2022-08-19T03:20:00.206Z,10.2
2022-08-19T03:25:00.174Z,10.3
2022-08-19T03:30:00.170Z,9.6
2022-08-19T03:35:00.167Z,8.7
2022-08-19T03:40:00.469Z,8.6
2022-08-19T03:45:00.181Z,9.1
2022-08-19T03:50:00.210Z,9.0
2022-08-19T03:55:00.160Z,10.2
2022-08-19T04:00:03.685Z,9.4
2022-08-19T04:05:00.178Z,9.2
2022-08-19T04:10:00.182Z,8.8
2022-08-19T04:15:00.174Z,8.8
2022-08-19T04:20:00.180Z,8.6
2022-08-19T04:25:00.177Z,8.2
2022-08-19T04:30:00.187Z,8.3
2022-08-19T04:35:15.805Z,8.9
2022-08-19T04:40:01.699Z,9.4
2022-08-19T04:45:00.241Z,8.6
2022-08-19T04:50:00.188Z,8.9
2022-08-19T04:55:00.201Z,9.6
2022-08-19T05:00:00.265Z,9.4
2022-08-19T05:05:00.199Z,9.1
2022-08-19T05:10:00.175Z,9.6
2022-08-19T05:15:00.179Z,9.6
2022-08-19T05:20:00.205Z,9.8
2022-08-19T05:25:12.096Z,9.3
2022-08-19T05:30:00.205Z,10.1
2022-08-19T05:35:00.203Z,8.3
2022-08-19T05:40:00.401Z,7.8
2022-08-19T05:45:00.206Z,9.8
2022-08-19T05:50:00.260Z,9.7
2022-08-19T05:55:00.210Z,9.9
2022-08-19T06:00:00.237Z,10.1
2022-08-19T06:05:00.200Z,0.0
2022-08-19T06:10:01.399Z,11.8
2022-08-19T06:15:01.113Z,9.4
2022-08-19T06:20:00.550Z,10.4
2022-08-19T06:25:00.195Z,10.6
2022-08-19T06:30:00.244Z,11.5
2022-08-19T06:35:00.202Z,11.8
2022-08-19T06:40:00.329Z,10.6
2022-08-19T06:45:00.270Z,9.8
2022-08-19T06:50:01.324Z,11.0
2022-08-19T06:55:00.183Z,11.0
2022-08-19T07:00:00.256Z,10.1
2022-08-19T07:05:00.326Z,11.7
2022-08-19T07:10:02.800Z,9.9
2022-08-19T07:15:00.212Z,12.7
2022-08-19T07:20:05.411Z,14.1
2022-08-19T07:25:00.196Z,13.1
2022-08-19T07:30:00.187Z,14.5
2022-08-19T07:35:01.724Z,18.3
2022-08-19T07:40:00.412Z,17.7
2022-08-19T07:45:00.244Z,18.6
2022-08-19T07:50:00.211Z,17.6
2022-08-19T07:55:00.198Z,17.6
2022-08-19T08:00:00.329Z,17.4
2022-08-19T08:05:00.195Z,18.7
2022-08-19T08:10:00.554Z,19.5
2022-08-19T08:15:00.199Z,19.2
2022-08-19T08:20:00.202Z,20.7
2022-08-19T08:25:00.201Z,20.9
2022-08-19T08:30:00.187Z,21.8
2022-08-19T08:35:00.207Z,21.6
2022-08-19T08:40:00.352Z,21.1
2022-08-19T08:45:00.434Z,20.3
2022-08-19T08:50:00.196Z,21.0
2022-08-19T08:55:00.194Z,20.6
2022-08-19T09:00:00.234Z,18.2
2022-08-19T09:05:00.190Z,20.8
2022-08-19T09:10:00.187Z,15.9
2022-08-19T09:15:00.193Z,15.0
2022-08-19T09:20:00.201Z,15.1
2022-08-19T09:25:00.193Z,15.6
2022-08-19T09:30:00.214Z,13.7
2022-08-19T09:35:00.203Z,15.1
2022-08-19T09:40:00.314Z,15.1
2022-08-19T09:45:00.503Z,15.9
2022-08-19T09:50:00.205Z,14.3
2022-08-19T09:55:00.545Z,14.9
2022-08-19T10:00:00.226Z,13.8
2022-08-19T10:05:00.216Z,14.3
2022-08-19T10:10:00.176Z,12.5
2022-08-19T10:15:00.224Z,15.9
2022-08-19T10:20:00.202Z,15.0
2022-08-19T10:25:00.197Z,10.7
2022-08-19T10:30:00.228Z,10.6
2022-08-19T10:35:00.181Z,9.7
2022-08-19T10:40:00.435Z,8.9
2022-08-19T10:45:00.255Z,8.9
2022-08-19T10:50:00.239Z,9.0
2022-08-19T10:55:05.448Z,8.4
2022-08-19T11:00:00.284Z,12.6
2022-08-19T11:05:04.860Z,10.2
2022-08-19T11:10:00.240Z,10.0
2022-08-19T11:15:00.312Z,10.7
2022-08-19T11:20:00.263Z,10.1
2022-08-19T11:25:00.300Z,9.1
2022-08-19T11:30:00.260Z,8.1
2022-08-19T11:35:00.243Z,7.1
2022-08-19T11:40:00.392Z,7.4
2022-08-19T11:45:00.261Z,8.2
2022-08-19T11:50:00.337Z,8.4
2022-08-19T11:55:00.264Z,9.2
2022-08-19T12:00:00.278Z,8.9
2022-08-19T12:05:00.252Z,7.8
2022-08-19T12:10:00.237Z,8.2
2022-08-19T12:15:00.297Z,6.3
2022-08-19T12:20:00.255Z,6.9
2022-08-19T12:25:00.270Z,6.1
2022-08-19T12:30:00.287Z,7.0
2022-08-19T12:35:00.237Z,7.3
2022-08-19T12:40:00.518Z,5.9
2022-08-19T12:45:00.241Z,6.9
2022-08-19T12:50:01.379Z,6.0
2022-08-19T12:55:00.232Z,7.4
2022-08-19T13:00:00.247Z,6.4
2022-08-19T13:05:00.221Z,6.1
2022-08-19T13:10:00.243Z,6.7
2022-08-19T13:15:00.238Z,5.9
2022-08-19T13:20:00.232Z,7.1
2022-08-19T13:25:00.373Z,6.7
2022-08-19T13:30:00.249Z,6.4
2022-08-19T13:35:00.253Z,6.6
2022-08-19T13:40:00.369Z,6.8
2022-08-19T13:45:00.243Z,6.5
2022-08-19T13:50:00.328Z,6.2
2022-08-19T13:55:00.249Z,7.4
2022-08-19T14:00:00.269Z,10.7
2022-08-19T14:05:00.235Z,0.0
2022-08-19T14:10:00.249Z,5.5
2022-08-19T14:15:00.209Z,6.1
2022-08-19T14:20:10.522Z,6.0
2022-08-19T14:25:00.189Z,7.2
2022-08-19T14:30:00.192Z,9.9
2022-08-19T14:35:00.200Z,12.0
2022-08-19T14:40:00.391Z,14.4
2022-08-19T14:45:00.178Z,12.2
2022-08-19T14:50:00.199Z,11.7
2022-08-19T14:55:00.185Z,10.2
2022-08-19T15:00:00.309Z,8.4
2022-08-19T15:05:00.173Z,9.3
2022-08-19T15:10:00.336Z,12.8
2022-08-19T15:15:00.290Z,14.4
2022-08-19T15:20:00.371Z,13.9
2022-08-19T15:25:02.058Z,12.9
2022-08-19T15:30:01.164Z,13.9
2022-08-19T15:35:00.220Z,14.0
2022-08-19T15:40:00.395Z,14.5
2022-08-19T15:45:00.718Z,14.6
2022-08-19T15:50:00.849Z,13.8
2022-08-19T15:55:00.187Z,14.0
2022-08-19T16:00:03.091Z,13.9
2022-08-19T16:05:00.206Z,11.2
2022-08-19T16:10:26.920Z,11.4
2022-08-19T16:15:00.201Z,12.6
2022-08-19T16:20:00.222Z,11.9
2022-08-19T16:25:00.269Z,11.5
2022-08-19T16:30:00.201Z,11.9
2022-08-19T16:35:04.501Z,11.3
2022-08-19T16:40:00.337Z,10.5
2022-08-19T16:45:00.178Z,9.8
2022-08-19T16:50:00.202Z,10.5
2022-08-19T16:55:00.202Z,10.1
2022-08-19T17:00:00.260Z,9.1
2022-08-19T17:05:00.221Z,6.6
2022-08-19T17:10:00.205Z,6.9
2022-08-19T17:15:00.211Z,6.6
2022-08-19T17:20:00.222Z,6.0
2022-08-19T17:25:00.222Z,7.0
2022-08-19T17:30:00.195Z,6.1
2022-08-19T17:35:00.182Z,6.7
2022-08-19T17:40:00.344Z,6.9
2022-08-19T17:45:00.191Z,7.2
2022-08-19T17:50:00.212Z,7.4
2022-08-19T17:55:00.191Z,6.7
2022-08-19T18:00:00.224Z,8.7
2022-08-19T18:05:00.193Z,6.9
2022-08-19T18:10:03.501Z,7.0
2022-08-19T18:15:00.207Z,6.8
2022-08-19T18:20:00.188Z,6.8
2022-08-19T18:25:00.194Z,7.1
2022-08-19T18:30:00.342Z,6.4
2022-08-19T18:35:00.153Z,7.3
2022-08-19T18:40:00.295Z,7.0
2022-08-19T18:45:00.365Z,7.4
2022-08-19T18:50:00.169Z,6.9
2022-08-19T18:55:00.207Z,6.8
2022-08-19T19:00:00.230Z,6.8
2022-08-19T19:05:03.844Z,6.3
2022-08-19T19:10:00.199Z,6.1
2022-08-19T19:15:00.160Z,6.2
2022-08-19T19:20:00.179Z,7.2
2022-08-19T19:25:00.202Z,6.4
2022-08-19T19:30:00.206Z,6.6
2022-08-19T19:35:00.190Z,7.0
2022-08-19T19:40:00.265Z,6.8
2022-08-19T19:45:00.195Z,7.0
2022-08-19T19:50:15.769Z,5.4
2022-08-19T19:55:00.208Z,6.8
2022-08-19T20:00:00.381Z,5.3
2022-08-19T20:10:00.527Z,0.0
2022-08-19T20:15:00.232Z,6.4
2022-08-19T20:20:00.225Z,6.7
2022-08-19T20:25:00.204Z,6.0
2022-08-19T20:30:00.203Z,6.7
2022-08-19T20:35:00.195Z,6.5
2022-08-19T20:40:00.301Z,6.3
2022-08-19T20:45:00.195Z,5.8
2022-08-19T20:50:00.200Z,6.4
2022-08-19T20:55:00.195Z,6.0
2022-08-19T21:00:00.340Z,5.1
2022-08-19T21:05:00.337Z,5.8
2022-08-19T21:10:00.260Z,4.5
2022-08-19T21:15:00.187Z,5.4
2022-08-19T21:20:00.198Z,5.2
2022-08-19T21:25:00.172Z,4.9
2022-08-19T21:30:00.212Z,4.5
2022-08-19T21:35:00.194Z,4.7
2022-08-19T21:40:00.326Z,4.3
2022-08-19T21:45:00.169Z,4.3
2022-08-19T21:50:00.192Z,4.3
2022-08-19T21:55:00.187Z,3.8
2022-08-19T22:00:00.275Z,3.5
2022-08-19T22:05:00.170Z,3.6
2022-08-19T22:10:00.197Z,3.4
2022-08-19T22:15:00.213Z,3.8
2022-08-19T22:20:00.176Z,3.6
2022-08-19T22:25:00.203Z,3.5
2022-08-19T22:30:00.194Z,3.3
2022-08-19T22:35:00.191Z,3.6
2022-08-19T22:40:00.363Z,3.4
2022-08-19T22:45:00.166Z,3.9
2022-08-19T22:50:00.221Z,3.6
2022-08-19T22:55:00.175Z,3.6
2022-08-19T23:00:01.275Z,3.6
2022-08-19T23:05:00.193Z,3.1
2022-08-19T23:10:00.198Z,3.1
2022-08-19T23:15:00.164Z,3.6
2022-08-19T23:20:00.200Z,3.9
2022-08-19T23:25:00.181Z,3.6
2022-08-19T23:30:00.205Z,3.4
2022-08-19T23:35:00.179Z,4.0
2022-08-19T23:40:00.321Z,3.1
2022-08-19T23:45:00.180Z,4.0
2022-08-19T23:50:00.195Z,3.5
2022-08-19T23:55:00.161Z,3.3
